createdAt,value
2018-09-27T00:02:19.932Z,102569.95
2018-09-27T00:04:47.955Z,102571.31
2018-09-27T00:07:15.980Z,102569.22
2018-09-27T00:09:44.016Z,102571.31
2018-09-27T00:12:12.699Z,102572.78
2018-09-27T00:14:40.768Z,102563.36
2018-09-27T00:17:08.825Z,102566.36
2018-09-27T00:19:36.947Z,102569.47
2018-09-27T00:22:05.219Z,102570.83
2018-09-27T00:24:33.243Z,102570.05
2018-09-27T00:27:01.442Z,102573.53
2018-09-27T00:29:29.484Z,102569.23
2018-09-27T00:31:57.518Z,102567.05
2018-09-27T00:34:25.701Z,102567.27
2018-09-27T00:36:53.753Z,102567.35
2018-09-27T00:39:21.788Z,102559.56
2018-09-27T00:41:49.843Z,102556.61
2018-09-27T00:44:17.887Z,102563.70
2018-09-27T00:46:45.920Z,102555.05
2018-09-27T00:49:14.099Z,102561.38
2018-09-27T00:51:42.134Z,102568.84
2018-09-27T00:54:10.239Z,102570.16
2018-09-27T00:56:38.253Z,102560.92
2018-09-27T00:59:06.736Z,102557.36
2018-09-27T01:01:34.772Z,102547.61
2018-09-27T01:04:02.807Z,102550.18
2018-09-27T01:06:30.863Z,102550.63
2018-09-27T01:08:58.867Z,102549.24
2018-09-27T01:11:26.910Z,102547.93
2018-09-27T01:13:54.927Z,102548.02
2018-09-27T01:16:22.943Z,102547.07
2018-09-27T01:18:50.967Z,102553.26
2018-09-27T01:21:19.007Z,102547.23
2018-09-27T01:23:47.055Z,102541.34
2018-09-27T01:26:15.080Z,102545.43
2018-09-27T01:28:43.098Z,102542.94
2018-09-27T01:31:11.124Z,102536.01
2018-09-27T01:33:39.328Z,102539.48
2018-09-27T01:36:07.348Z,102538.75
2018-09-27T01:38:35.368Z,102535.32
2018-09-27T01:41:03.404Z,102541.59
2018-09-27T01:43:31.427Z,102534.17
2018-09-27T01:45:59.475Z,102531.67
2018-09-27T01:48:27.677Z,102529.29
2018-09-27T01:50:55.694Z,102523.19
2018-09-27T01:53:23.708Z,102522.94
2018-09-27T01:55:51.743Z,102522.94
2018-09-27T01:58:19.786Z,102521.09
2018-09-27T02:00:47.986Z,102523.34
2018-09-27T02:03:16.004Z,102517.37
2018-09-27T02:05:44.070Z,102515.36
2018-09-27T02:08:12.103Z,102511.95
2018-09-27T02:10:40.307Z,102510.64
2018-09-27T02:13:08.332Z,102512.73
2018-09-27T02:15:36.358Z,102509.78
2018-09-27T02:18:04.916Z,102517.61
2018-09-27T02:20:32.956Z,102513.47
2018-09-27T02:23:01.199Z,102515.72
2018-09-27T02:25:29.236Z,102512.64
2018-09-27T02:27:57.280Z,102506.88
2018-09-27T02:30:25.452Z,102501.63
2018-09-27T02:32:53.522Z,102502.41
2018-09-27T02:35:21.586Z,102499.78
2018-09-27T02:37:49.623Z,102497.86
2018-09-27T02:40:17.695Z,102494.26
2018-09-27T02:42:45.717Z,102501.96
2018-09-27T02:45:13.771Z,102495.33
2018-09-27T02:47:43.083Z,102485.53
2018-09-27T02:50:11.112Z,102487.50
2018-09-27T02:52:39.268Z,102483.03
2018-09-27T02:55:07.334Z,102481.53
2018-09-27T02:57:35.597Z,102479.61
2018-09-27T03:00:03.668Z,102480.76
2018-09-27T03:02:31.732Z,102479.94
2018-09-27T03:04:59.785Z,102478.91
2018-09-27T03:07:27.811Z,102480.46
2018-09-27T03:09:56.370Z,102481.32
2018-09-27T03:12:24.405Z,102478.08
2018-09-27T03:14:52.528Z,102474.02
2018-09-27T03:17:20.590Z,102469.99
2018-09-27T03:19:48.671Z,102465.44
2018-09-27T03:22:16.733Z,102465.67
2018-09-27T03:24:44.761Z,102463.77
2018-09-27T03:27:12.864Z,102456.72
2018-09-27T03:29:40.908Z,102455.41
2018-09-27T03:32:08.956Z,102455.28
2018-09-27T03:34:36.968Z,102454.73
2018-09-27T03:37:05.015Z,102455.97
2018-09-27T03:39:33.224Z,102452.97
2018-09-27T03:42:01.252Z,102448.95
2018-09-27T03:44:29.280Z,102446.16
2018-09-27T03:46:57.311Z,102443.84
2018-09-27T03:49:25.520Z,102448.19
2018-09-27T03:51:53.585Z,102447.24
2018-09-27T03:54:21.645Z,102447.16
2018-09-27T03:56:49.648Z,102443.08
2018-09-27T03:59:17.788Z,102437.30
2018-09-27T04:01:46.032Z,102436.75
2018-09-27T04:04:14.437Z,102432.27
2018-09-27T04:06:42.481Z,102430.95
2018-09-27T04:09:11.192Z,102433.58
2018-09-27T04:11:39.668Z,102432.50
2018-09-27T04:14:08.240Z,102428.02
2018-09-27T04:16:36.469Z,102432.73
2018-09-27T04:19:04.739Z,102434.81
2018-09-27T04:21:32.788Z,102425.94
2018-09-27T04:24:00.840Z,102436.35
2018-09-27T04:26:28.844Z,102432.78
2018-09-27T04:28:56.916Z,102435.49
2018-09-27T04:31:25.160Z,102443.83
2018-09-27T04:33:53.238Z,102435.81
2018-09-27T04:36:21.316Z,102439.66
2018-09-27T04:38:49.387Z,102433.01
2018-09-27T04:41:17.428Z,102428.52
2018-09-27T04:43:45.823Z,102422.81
2018-09-27T04:46:13.840Z,102422.36
2018-09-27T04:48:41.970Z,102422.36
2018-09-27T04:51:10.016Z,102422.91
2018-09-27T04:53:38.667Z,102422.81
2018-09-27T04:56:06.679Z,102419.05
2018-09-27T04:58:35.159Z,102417.65
2018-09-27T05:01:03.209Z,102408.60
2018-09-27T05:03:31.318Z,102411.77
2018-09-27T05:05:59.371Z,102417.97
2018-09-27T05:08:27.417Z,102425.44
2018-09-27T05:10:55.461Z,102422.99
2018-09-27T05:13:23.500Z,102422.05
2018-09-27T05:15:51.560Z,102425.08
2018-09-27T05:18:20.050Z,102423.27
2018-09-27T05:20:48.108Z,102415.39
2018-09-27T05:23:16.301Z,102415.80
2018-09-27T05:25:44.868Z,102413.94
2018-09-27T05:28:12.911Z,102417.11
2018-09-27T05:30:40.953Z,102414.62
2018-09-27T05:33:08.991Z,102413.86
2018-09-27T05:35:37.020Z,102411.63
2018-09-27T05:38:05.044Z,102410.55
2018-09-27T05:40:33.242Z,102409.59
2018-09-27T05:43:01.313Z,102405.66
2018-09-27T05:45:29.422Z,102409.23
2018-09-27T05:47:57.407Z,102409.37
2018-09-27T05:50:25.468Z,102410.31
2018-09-27T05:52:53.512Z,102416.02
2018-09-27T05:55:21.771Z,102421.19
2018-09-27T05:57:50.639Z,102413.53
2018-09-27T06:00:18.679Z,102419.02
2018-09-27T06:02:46.715Z,102412.84
2018-09-27T06:05:14.944Z,102417.16
2018-09-27T06:07:43.017Z,102422.41
2018-09-27T06:10:11.119Z,102420.27
2018-09-27T06:12:39.156Z,102423.72
2018-09-27T06:15:07.188Z,102420.49
2018-09-27T06:17:35.219Z,102423.89
2018-09-27T06:20:03.251Z,102413.30
2018-09-27T06:22:31.293Z,102410.13
2018-09-27T06:24:59.321Z,102407.95
2018-09-27T06:27:27.868Z,102415.38
2018-09-27T06:29:55.900Z,102413.42
2018-09-27T06:32:24.125Z,102412.42
2018-09-27T06:34:52.440Z,102410.56
2018-09-27T06:37:20.418Z,102414.27
2018-09-27T06:39:48.443Z,102408.83
2018-09-27T06:42:16.472Z,102406.11
2018-09-27T06:44:44.529Z,102407.31
2018-09-27T06:47:12.924Z,102415.28
2018-09-27T06:49:41.207Z,102416.42
2018-09-27T06:52:09.221Z,102418.95
2018-09-27T06:54:37.260Z,102424.34
2018-09-27T06:57:05.551Z,102425.59
2018-09-27T06:59:33.579Z,102419.58
2018-09-27T07:02:01.851Z,102410.38
2018-09-27T07:04:30.169Z,102407.25
2018-09-27T07:06:58.200Z,102408.97
2018-09-27T07:09:26.248Z,102412.05
2018-09-27T07:11:54.359Z,102412.36
2018-09-27T07:14:22.356Z,102411.72
2018-09-27T07:16:50.356Z,102405.37
2018-09-27T07:19:18.576Z,102405.98
2018-09-27T07:21:46.602Z,102403.07
2018-09-27T07:24:14.623Z,102398.52
2018-09-27T07:26:43.220Z,102399.19
2018-09-27T07:29:11.133Z,102402.88
2018-09-27T07:31:39.164Z,102400.16
2018-09-27T07:34:07.204Z,102407.80
2018-09-27T07:36:36.099Z,102400.13
2018-09-27T07:39:07.395Z,102399.78
2018-09-27T07:41:35.527Z,102398.12
2018-09-27T07:44:03.568Z,102400.95
2018-09-27T07:46:31.584Z,102400.67
2018-09-27T07:48:59.615Z,102399.40
2018-09-27T07:51:27.662Z,102398.75
2018-09-27T07:53:56.060Z,102396.72
2018-09-27T07:56:24.093Z,102403.30
2018-09-27T07:58:52.119Z,102404.06
2018-09-27T08:01:20.171Z,102403.41
2018-09-27T08:03:48.691Z,102391.30
2018-09-27T08:06:16.727Z,102398.58
2018-09-27T08:08:45.607Z,102390.62
2018-09-27T08:11:13.970Z,102392.13
2018-09-27T08:13:42.001Z,102396.48
2018-09-27T08:16:10.018Z,102397.23
2018-09-27T08:18:38.420Z,102386.61
2018-09-27T08:21:06.606Z,102388.22
2018-09-27T08:23:34.564Z,102383.21
2018-09-27T08:26:02.605Z,102379.91
2018-09-27T08:28:30.724Z,102374.95
2018-09-27T08:30:58.866Z,102377.50
2018-09-27T08:33:26.783Z,102375.72
2018-09-27T08:35:54.812Z,102367.33
2018-09-27T08:38:23.060Z,102363.11
2018-09-27T08:40:51.019Z,102361.13
2018-09-27T08:43:19.445Z,102364.13
2018-09-27T08:45:47.674Z,102368.66
2018-09-27T08:48:15.540Z,102366.89
2018-09-27T08:50:43.846Z,102363.77
2018-09-27T08:53:11.879Z,102362.42
2018-09-27T08:55:40.022Z,102359.97
2018-09-27T08:58:08.542Z,102353.95
2018-09-27T09:00:36.571Z,102357.80
2018-09-27T09:03:04.960Z,102353.27
2018-09-27T09:05:32.979Z,102346.34
2018-09-27T09:08:00.996Z,102330.65
2018-09-27T09:10:29.036Z,102326.91
2018-09-27T09:12:57.111Z,102333.43
2018-09-27T09:15:25.197Z,102324.77
2018-09-27T09:17:53.196Z,102323.36
2018-09-27T09:20:21.235Z,102322.29
2018-09-27T09:22:49.677Z,102315.25
2018-09-27T09:25:17.885Z,102320.50
2018-09-27T09:27:46.812Z,102318.23
2018-09-27T09:30:14.957Z,102316.28
2018-09-27T09:32:43.210Z,102316.71
2018-09-27T09:35:11.236Z,102309.38
2018-09-27T09:37:39.512Z,102309.42
2018-09-27T09:40:07.551Z,102310.81
2018-09-27T09:42:35.581Z,102306.80
2018-09-27T09:45:03.689Z,102303.58
2018-09-27T09:47:31.756Z,102301.30
2018-09-27T09:49:59.845Z,102293.11
2018-09-27T09:52:28.021Z,102287.94
2018-09-27T09:54:56.041Z,102280.84
2018-09-27T09:57:25.365Z,102279.77
2018-09-27T09:59:53.404Z,102280.39
2018-09-27T10:02:21.645Z,102279.92
2018-09-27T10:04:49.628Z,102265.07
2018-09-27T10:07:17.651Z,102265.84
2018-09-27T10:09:45.926Z,102272.94
2018-09-27T10:12:13.957Z,102271.02
2018-09-27T10:14:42.600Z,102268.95
2018-09-27T10:17:10.626Z,102264.41
2018-09-27T10:19:38.668Z,102267.85
2018-09-27T10:22:06.922Z,102266.56
2018-09-27T10:24:34.951Z,102262.42
2018-09-27T10:27:03.035Z,102258.39
2018-09-27T10:29:31.075Z,102254.36
2018-09-27T10:31:59.134Z,102250.79
2018-09-27T10:34:27.273Z,102243.59
2018-09-27T10:36:55.617Z,102244.84
2018-09-27T10:39:24.572Z,102239.43
2018-09-27T10:41:52.624Z,102230.70
2018-09-27T10:44:20.681Z,102227.66
2018-09-27T10:46:48.707Z,102223.04
2018-09-27T10:49:16.756Z,102223.41
2018-09-27T10:51:44.791Z,102219.81
2018-09-27T10:54:12.984Z,102222.95
2018-09-27T10:56:41.001Z,102215.77
2018-09-27T10:59:09.728Z,102203.77
2018-09-27T11:01:37.761Z,102206.76
2018-09-27T11:04:05.889Z,102201.61
2018-09-27T11:06:33.892Z,102200.38
2018-09-27T11:09:01.925Z,102192.16
2018-09-27T11:11:30.053Z,102189.70
2018-09-27T11:13:58.018Z,102181.30
2018-09-27T11:16:26.333Z,102180.55
2018-09-27T11:18:54.381Z,102175.45
2018-09-27T11:21:22.408Z,102176.30
2018-09-27T11:23:50.445Z,102168.41
2018-09-27T11:26:18.480Z,102163.03
2018-09-27T11:28:52.212Z,102172.23
2018-09-27T11:31:25.490Z,102163.13
2018-09-27T11:33:53.837Z,102165.05
2018-09-27T11:36:22.004Z,102159.61
2018-09-27T11:38:50.409Z,102158.55
2018-09-27T11:41:18.448Z,102153.53
2018-09-27T11:43:46.757Z,102145.93
2018-09-27T11:46:14.789Z,102143.56
2018-09-27T11:48:42.839Z,102137.61
2018-09-27T11:51:10.875Z,102132.84
2018-09-27T11:53:38.906Z,102129.53
2018-09-27T11:56:07.011Z,102123.82
2018-09-27T11:58:34.976Z,102116.22
2018-09-27T12:01:03.012Z,102114.59
2018-09-27T12:03:31.051Z,102111.89
2018-09-27T12:05:59.120Z,102112.75
2018-09-27T12:08:27.127Z,102103.36
2018-09-27T12:10:55.263Z,102094.77
2018-09-27T12:13:23.332Z,102094.47
2018-09-27T12:15:51.983Z,102093.52
2018-09-27T12:18:20.026Z,102101.58
2018-09-27T12:20:48.060Z,102087.60
2018-09-27T12:23:16.101Z,102089.45
2018-09-27T12:25:44.371Z,102086.20
2018-09-27T12:28:12.308Z,102079.31
2018-09-27T12:30:40.432Z,102070.84
2018-09-27T12:33:08.493Z,102071.48
2018-09-27T12:35:36.524Z,102067.59
2018-09-27T12:38:04.926Z,102063.95
2018-09-27T12:40:32.966Z,102058.39
2018-09-27T12:43:01.096Z,102049.74
2018-09-27T12:45:29.216Z,102043.64
2018-09-27T12:47:57.263Z,102049.55
2018-09-27T12:50:25.344Z,102044.61
2018-09-27T12:52:53.363Z,102050.09
2018-09-27T12:55:21.423Z,102047.32
2018-09-27T12:57:49.461Z,102033.45
2018-09-27T13:00:17.484Z,102031.44
2018-09-27T13:02:45.627Z,102031.22
2018-09-27T13:05:13.556Z,102029.96
2018-09-27T13:07:41.620Z,102031.93
2018-09-27T13:10:09.689Z,102029.02
2018-09-27T13:12:37.749Z,102024.44
2018-09-27T13:15:05.738Z,102018.84
2018-09-27T13:17:33.984Z,102012.86
2018-09-27T13:20:02.156Z,102007.60
2018-09-27T13:22:30.200Z,102002.84
2018-09-27T13:24:58.657Z,102002.02
2018-09-27T13:27:26.553Z,101999.68
2018-09-27T13:29:54.635Z,101993.80
2018-09-27T13:32:22.675Z,101987.64
2018-09-27T13:34:50.887Z,101985.98
2018-09-27T13:37:18.924Z,101983.45
2018-09-27T13:39:46.971Z,101984.89
2018-09-27T13:42:14.983Z,101976.04
2018-09-27T13:44:43.033Z,101976.11
2018-09-27T13:47:11.072Z,101969.04
2018-09-27T13:49:39.164Z,101960.45
2018-09-27T13:52:07.371Z,101957.58
2018-09-27T13:54:35.465Z,101960.62
2018-09-27T13:57:03.623Z,101953.92
2018-09-27T13:59:31.592Z,101945.21
2018-09-27T14:01:59.637Z,101944.86
2018-09-27T14:04:28.013Z,101945.45
2018-09-27T14:06:56.121Z,101942.11
2018-09-27T14:09:24.152Z,101940.48
2018-09-27T14:11:52.244Z,101932.88
2018-09-27T14:14:20.263Z,101931.05
2018-09-27T14:16:48.386Z,101929.30
2018-09-27T14:19:16.364Z,101924.48
2018-09-27T14:21:44.420Z,101917.30
2018-09-27T14:24:12.452Z,101921.30
2018-09-27T14:26:40.552Z,101915.19
2018-09-27T14:29:08.592Z,101903.81
2018-09-27T14:31:36.812Z,101906.51
2018-09-27T14:34:05.348Z,101901.41
2018-09-27T14:36:33.422Z,101896.55
2018-09-27T14:39:01.386Z,101892.88
2018-09-27T14:41:30.061Z,101894.23
2018-09-27T14:43:58.044Z,101892.02
2018-09-27T14:46:26.096Z,101885.94
2018-09-27T14:48:54.237Z,101886.45
2018-09-27T14:51:22.290Z,101879.80
2018-09-27T14:53:50.325Z,101884.64
2018-09-27T14:56:18.418Z,101878.95
2018-09-27T14:58:46.472Z,101876.21
2018-09-27T15:01:14.429Z,101873.75
2018-09-27T15:03:42.452Z,101868.55
2018-09-27T15:06:10.732Z,101861.93
2018-09-27T15:08:38.902Z,101857.08
2018-09-27T15:11:06.980Z,101858.45
2018-09-27T15:13:35.045Z,101856.08
2018-09-27T15:16:03.123Z,101852.69
2018-09-27T15:18:31.208Z,101843.87
2018-09-27T15:20:59.367Z,101848.73
2018-09-27T15:23:27.713Z,101840.14
2018-09-27T15:25:55.808Z,101840.45
2018-09-27T15:28:24.457Z,101839.61
2018-09-27T15:30:52.683Z,101834.08
2018-09-27T15:33:20.710Z,101829.22
2018-09-27T15:35:49.119Z,101824.88
2018-09-27T15:38:23.277Z,101825.48
2018-09-27T15:40:51.300Z,101819.27
2018-09-27T15:43:19.332Z,101819.73
2018-09-27T15:45:47.676Z,101822.13
2018-09-27T15:48:15.720Z,101818.58
2018-09-27T15:50:43.755Z,101821.59
2018-09-27T15:53:13.414Z,101817.61
2018-09-27T15:55:41.457Z,101816.77
2018-09-27T15:58:16.165Z,101810.42
2018-09-27T16:00:44.228Z,101804.53
2018-09-27T16:03:12.279Z,101799.16
2018-09-27T16:05:40.312Z,101804.94
2018-09-27T16:08:08.353Z,101798.03
2018-09-27T16:10:36.640Z,101791.97
2018-09-27T16:13:05.013Z,101792.39
2018-09-27T16:15:33.052Z,101791.49
2018-09-27T16:18:01.128Z,101786.81
2018-09-27T16:20:29.228Z,101788.77
2018-09-27T16:22:57.301Z,101784.04
2018-09-27T16:25:25.360Z,101787.23
2018-09-27T16:27:53.381Z,101785.04
2018-09-27T16:30:21.703Z,101781.74
2018-09-27T16:32:49.720Z,101777.00
2018-09-27T16:35:17.969Z,101770.30
2018-09-27T16:37:46.805Z,101771.38
2018-09-27T16:40:14.950Z,101779.41
2018-09-27T16:42:42.967Z,101769.65
2018-09-27T16:45:10.977Z,101775.31
2018-09-27T16:47:39.070Z,101774.62
2018-09-27T16:50:07.308Z,101771.03
2018-09-27T16:52:35.320Z,101764.11
2018-09-27T16:55:03.339Z,101767.64
2018-09-27T16:57:31.361Z,101762.88
2018-09-27T16:59:59.384Z,101765.66
2018-09-27T17:02:27.428Z,101764.42
2018-09-27T17:04:55.520Z,101759.45
2018-09-27T17:07:23.543Z,101754.19
2018-09-27T17:09:51.582Z,101760.45
2018-09-27T17:12:19.655Z,101752.39
2018-09-27T17:14:47.900Z,101749.27
2018-09-27T17:17:16.076Z,101745.73
2018-09-27T17:19:44.141Z,101742.35
2018-09-27T17:22:12.245Z,101739.30
2018-09-27T17:24:40.373Z,101741.39
2018-09-27T17:27:08.512Z,101735.06
2018-09-27T17:29:37.129Z,101729.93
2018-09-27T17:32:05.159Z,101724.88
2018-09-27T17:34:33.223Z,101723.25
2018-09-27T17:37:01.232Z,101726.41
2018-09-27T17:39:29.255Z,101719.20
2018-09-27T17:41:57.328Z,101720.63
2018-09-27T17:44:25.376Z,101719.42
2018-09-27T17:46:53.400Z,101720.84
2018-09-27T17:49:21.432Z,101710.38
2018-09-27T17:51:49.592Z,101717.18
2018-09-27T17:54:17.620Z,101720.27
2018-09-27T17:56:45.645Z,101718.56
2018-09-27T17:59:14.083Z,101720.80
2018-09-27T18:01:42.121Z,101717.50
2018-09-27T18:04:10.233Z,101720.10
2018-09-27T18:06:38.245Z,101721.31
2018-09-27T18:09:08.716Z,101714.22
2018-09-27T18:11:46.819Z,101722.30
2018-09-27T18:14:15.724Z,101724.53
2018-09-27T18:16:43.804Z,101726.52
2018-09-27T18:19:11.769Z,101730.38
2018-09-27T18:21:39.790Z,101726.36
2018-09-27T18:24:07.839Z,101725.91
2018-09-27T18:26:35.850Z,101725.34
2018-09-27T18:29:05.244Z,101731.61
2018-09-27T18:31:33.337Z,101725.53
2018-09-27T18:34:01.328Z,101727.27
2018-09-27T18:36:29.373Z,101728.16
2018-09-27T18:38:57.412Z,101727.83
2018-09-27T18:41:25.725Z,101729.98
2018-09-27T18:43:53.748Z,101733.41
2018-09-27T18:46:22.012Z,101730.45
2018-09-27T18:48:52.086Z,101728.59
2018-09-27T18:51:20.144Z,101724.77
2018-09-27T18:53:48.127Z,101725.56
2018-09-27T18:56:16.234Z,101722.88
2018-09-27T18:58:44.260Z,101726.48
2018-09-27T19:01:12.299Z,101733.17
2018-09-27T19:03:40.487Z,101723.17
2018-09-27T19:06:08.508Z,101722.50
2018-09-27T19:08:36.743Z,101725.56
2018-09-27T19:11:05.075Z,101727.70
2018-09-27T19:13:33.051Z,101724.90
2018-09-27T19:16:01.076Z,101724.94
2018-09-27T19:18:30.112Z,101720.43
2018-09-27T19:20:58.136Z,101715.95
2018-09-27T19:23:26.644Z,101714.07
2018-09-27T19:25:54.655Z,101717.47
2018-09-27T19:28:22.686Z,101715.59
2018-09-27T19:30:50.831Z,101712.99
2018-09-27T19:33:18.852Z,101713.83
2018-09-27T19:35:47.132Z,101712.80
2018-09-27T19:38:15.179Z,101713.73
2018-09-27T19:40:55.169Z,101716.66
2018-09-27T19:43:23.195Z,101711.59
2018-09-27T19:45:51.219Z,101711.86
2018-09-27T19:51:09.493Z,101715.70
2018-09-27T19:53:37.524Z,101718.14
2018-09-27T19:56:05.616Z,101717.06
2018-09-27T19:58:33.627Z,101718.58
2018-09-27T20:01:01.690Z,101719.23
2018-09-27T20:03:29.715Z,101714.55
2018-09-27T20:05:58.549Z,101715.20
2018-09-27T20:08:26.561Z,101723.34
2018-09-27T20:10:54.585Z,101730.05
2018-09-27T20:13:22.604Z,101728.51
2018-09-27T20:15:50.627Z,101728.41
2018-09-27T20:18:18.649Z,101724.17
2018-09-27T20:20:46.669Z,101731.22
2018-09-27T20:23:15.398Z,101731.84
2018-09-27T20:25:43.427Z,101725.38
2018-09-27T20:28:12.278Z,101719.94
2018-09-27T20:30:40.476Z,101723.97
2018-09-27T20:33:08.511Z,101723.21
2018-09-27T20:35:37.295Z,101728.55
2018-09-27T20:38:05.331Z,101719.53
2018-09-27T20:40:33.364Z,101712.78
2018-09-27T20:43:01.447Z,101710.16
2018-09-27T20:45:29.483Z,101709.41
2018-09-27T20:47:57.510Z,101708.66
2018-09-27T20:50:25.552Z,101721.38
2018-09-27T20:52:53.568Z,101718.92
2018-09-27T20:55:21.795Z,101718.63
2018-09-27T20:57:51.145Z,101719.17
2018-09-27T21:00:19.635Z,101725.06
2018-09-27T21:02:47.676Z,101730.09
2018-09-27T21:05:15.713Z,101725.04
2018-09-27T21:07:43.736Z,101714.72
2018-09-27T21:10:11.767Z,101710.23
2018-09-27T21:12:39.940Z,101705.60
2018-09-27T21:15:08.039Z,101711.87
2018-09-27T21:17:36.288Z,101716.91
2018-09-27T21:20:04.886Z,101714.31
2018-09-27T21:22:33.075Z,101705.61
2018-09-27T21:25:01.092Z,101694.17
2018-09-27T21:27:29.122Z,101693.91
2018-09-27T21:29:57.144Z,101690.89
2018-09-27T21:32:25.146Z,101693.69
2018-09-27T21:34:53.371Z,101702.23
2018-09-27T21:37:21.387Z,101693.14
2018-09-27T21:39:49.663Z,101691.00
2018-09-27T21:42:17.687Z,101688.63
2018-09-27T21:44:45.707Z,101685.73
2018-09-27T21:47:13.741Z,101672.67
2018-09-27T21:49:41.764Z,101675.06
2018-09-27T21:52:09.773Z,101666.38
2018-09-27T21:54:38.151Z,101665.52
2018-09-27T21:57:06.175Z,101659.84
2018-09-27T21:59:34.199Z,101652.17
2018-09-27T22:02:02.319Z,101654.56
2018-09-27T22:04:30.346Z,101657.23
2018-09-27T22:06:58.349Z,101664.41
2018-09-27T22:09:26.840Z,101669.59
2018-09-27T22:11:54.877Z,101664.68
2018-09-27T22:14:22.880Z,101669.20
2018-09-27T22:16:51.227Z,101671.98
2018-09-27T22:19:19.243Z,101671.36
2018-09-27T22:21:47.271Z,101666.17
2018-09-27T22:24:15.435Z,101668.84
2018-09-27T22:26:43.460Z,101674.32
2018-09-27T22:29:11.467Z,101668.78
2018-09-27T22:31:39.509Z,101665.09
2018-09-27T22:34:07.699Z,101675.22
2018-09-27T22:36:35.704Z,101680.22
2018-09-27T22:39:04.144Z,101681.37
2018-09-27T22:41:32.166Z,101687.95
2018-09-27T22:44:00.443Z,101685.27
2018-09-27T22:46:28.519Z,101679.89
2018-09-27T22:48:56.556Z,101678.59
2018-09-27T22:51:24.571Z,101679.66
2018-09-27T22:53:52.591Z,101673.67
2018-09-27T22:56:20.620Z,101671.59
2018-09-27T22:58:48.644Z,101667.98
2018-09-27T23:01:23.084Z,101665.82
2018-09-27T23:03:51.260Z,101654.20
2018-09-27T23:06:19.279Z,101653.06
2018-09-27T23:08:47.438Z,101650.59
2018-09-27T23:11:15.476Z,101648.59
2018-09-27T23:13:43.592Z,101644.69
2018-09-27T23:16:11.592Z,101653.45
2018-09-27T23:18:39.775Z,101647.05
2018-09-27T23:21:07.791Z,101655.26
2018-09-27T23:23:35.932Z,101648.87
2018-09-27T23:26:04.892Z,101654.70
2018-09-27T23:28:32.863Z,101647.94
2018-09-27T23:31:00.883Z,101653.55
2018-09-27T23:33:28.891Z,101655.31
2018-09-27T23:35:56.908Z,101661.38
2018-09-27T23:38:24.935Z,101679.16
2018-09-27T23:40:52.955Z,101680.55
2018-09-27T23:43:20.976Z,101675.33
2018-09-27T23:45:48.991Z,101668.48
2018-09-27T23:48:17.000Z,101678.87
2018-09-27T23:50:45.251Z,101674.80
2018-09-27T23:53:13.307Z,101681.72
2018-09-27T23:55:41.272Z,101687.47
2018-09-27T23:58:09.467Z,101691.63
